createdAt,value
2022-11-22T00:01:23.422Z,19.13
2022-11-22T00:03:56.520Z,19.13
2022-11-22T00:06:29.488Z,19.12
2022-11-22T00:09:02.474Z,19.12
2022-11-22T00:11:35.423Z,19.11
2022-11-22T00:14:08.431Z,19.11
2022-11-22T00:16:41.454Z,19.10
2022-11-22T00:19:14.512Z,19.10
2022-11-22T00:21:47.508Z,19.10
2022-11-22T00:24:20.444Z,19.09
2022-11-22T00:26:53.565Z,19.09
2022-11-22T00:29:26.631Z,19.08
2022-11-22T00:31:59.426Z,19.08
2022-11-22T00:34:32.501Z,19.07
2022-11-22T00:37:05.322Z,19.07
2022-11-22T00:39:38.463Z,19.06
2022-11-22T00:42:11.481Z,19.06
2022-11-22T00:44:44.494Z,19.05
2022-11-22T00:47:17.565Z,19.05
2022-11-22T00:49:50.519Z,19.05
2022-11-22T00:52:23.559Z,19.04
2022-11-22T00:54:56.493Z,19.04
2022-11-22T00:57:29.515Z,19.04
2022-11-22T01:00:02.518Z,19.03
2022-11-22T01:02:35.561Z,19.03
2022-11-22T01:05:08.578Z,19.03
2022-11-22T01:07:41.609Z,19.02
2022-11-22T01:10:14.624Z,19.02
2022-11-22T01:12:47.591Z,19.02
2022-11-22T01:15:20.228Z,19.02
2022-11-22T01:17:53.599Z,19.01
2022-11-22T01:20:26.670Z,19.01
2022-11-22T01:23:03.502Z,19.01
2022-11-22T01:25:36.655Z,19.01
2022-11-22T01:28:09.572Z,19.01
2022-11-22T01:30:42.313Z,19.01
2022-11-22T01:33:15.522Z,19.01
2022-11-22T01:35:48.712Z,19.01
2022-11-22T01:38:21.626Z,19.01
2022-11-22T01:40:54.664Z,19.00
2022-11-22T01:43:27.615Z,19.00
2022-11-22T01:46:00.652Z,19.00
2022-11-22T01:48:33.467Z,19.00
2022-11-22T01:51:06.581Z,18.99
2022-11-22T01:53:39.625Z,18.99
2022-11-22T01:56:12.691Z,18.99
2022-11-22T01:58:45.604Z,18.98
2022-11-22T02:01:18.717Z,18.98
2022-11-22T02:03:51.649Z,18.98
2022-11-22T02:06:24.753Z,18.98
2022-11-22T02:08:57.695Z,18.97
2022-11-22T02:11:34.119Z,18.97
2022-11-22T02:14:03.607Z,18.96
2022-11-22T02:16:36.730Z,18.96
2022-11-22T02:19:09.595Z,18.96
2022-11-22T02:21:42.677Z,18.95
2022-11-22T02:24:15.689Z,18.95
2022-11-22T02:26:48.757Z,18.95
2022-11-22T02:29:21.693Z,18.95
2022-11-22T02:31:54.627Z,18.94
2022-11-22T02:34:27.747Z,18.94
2022-11-22T02:37:00.530Z,18.94
2022-11-22T02:39:33.731Z,18.94
2022-11-22T02:42:06.672Z,18.93
2022-11-22T02:44:39.701Z,18.93
2022-11-22T02:47:12.685Z,18.93
2022-11-22T02:49:45.723Z,18.92
2022-11-22T02:52:18.727Z,18.92
2022-11-22T02:54:51.757Z,18.92
2022-11-22T02:57:24.685Z,18.92
2022-11-22T02:59:57.654Z,18.91
2022-11-22T03:02:30.785Z,18.91
2022-11-22T03:05:03.730Z,18.91
2022-11-22T03:07:36.787Z,18.91
2022-11-22T03:10:09.697Z,18.91
2022-11-22T03:12:42.601Z,18.90
2022-11-22T03:15:15.768Z,18.90
2022-11-22T03:17:48.770Z,18.89
2022-11-22T03:20:21.760Z,18.89
2022-11-22T03:22:54.725Z,18.88
2022-11-22T03:25:27.807Z,18.88
2022-11-22T03:28:00.821Z,18.87
2022-11-22T03:30:33.658Z,18.87
2022-11-22T03:33:06.775Z,18.87
2022-11-22T03:35:39.838Z,18.87
2022-11-22T03:38:12.805Z,18.86
2022-11-22T03:40:45.811Z,18.86
2022-11-22T03:43:18.757Z,18.86
2022-11-22T03:45:51.806Z,18.86
2022-11-22T03:48:24.907Z,18.86
2022-11-22T03:50:57.814Z,18.86
2022-11-22T03:53:30.876Z,18.86
2022-11-22T03:56:03.805Z,18.85
2022-11-22T03:58:36.831Z,18.85
2022-11-22T04:01:14.935Z,18.85
2022-11-22T04:03:42.843Z,18.85
2022-11-22T04:06:15.818Z,18.85
2022-11-22T04:08:48.919Z,18.84
2022-11-22T04:11:21.878Z,18.84
2022-11-22T04:13:54.855Z,18.84
2022-11-22T04:16:27.850Z,18.84
2022-11-22T04:19:00.866Z,18.83
2022-11-22T04:21:33.809Z,18.83
2022-11-22T04:24:06.929Z,18.83
2022-11-22T04:26:39.820Z,18.83
2022-11-22T04:29:12.937Z,18.82
2022-11-22T04:31:45.831Z,18.82
2022-11-22T04:34:18.839Z,18.82
2022-11-22T04:36:51.582Z,18.82
2022-11-22T04:39:24.946Z,18.81
2022-11-22T04:41:57.930Z,18.81
2022-11-22T04:44:30.817Z,18.81
2022-11-22T04:47:03.613Z,18.80
2022-11-22T04:49:36.947Z,18.80
2022-11-22T04:52:09.896Z,18.79
2022-11-22T04:54:42.997Z,18.79
2022-11-22T04:57:15.563Z,18.79
2022-11-22T04:59:48.753Z,18.79
2022-11-22T05:02:23.635Z,18.78
2022-11-22T05:04:56.605Z,18.78
2022-11-22T05:07:29.682Z,18.78
2022-11-22T05:10:02.975Z,18.78
2022-11-22T05:12:35.914Z,18.77
2022-11-22T05:15:08.875Z,18.77
2022-11-22T05:17:41.964Z,18.77
2022-11-22T05:20:14.906Z,18.77
2022-11-22T05:22:47.655Z,18.76
2022-11-22T05:25:25.294Z,18.76
2022-11-22T05:27:53.990Z,18.76
2022-11-22T05:30:26.948Z,18.76
2022-11-22T05:32:59.624Z,18.75
2022-11-22T05:35:32.961Z,18.75
2022-11-22T05:38:09.707Z,18.75
2022-11-22T05:40:42.981Z,18.75
2022-11-22T05:46:05.974Z,18.74
2022-11-22T05:48:39.002Z,18.74
2022-11-22T05:51:11.998Z,18.74
2022-11-22T05:53:44.988Z,18.74
2022-11-22T05:56:17.947Z,18.73
2022-11-22T05:58:51.080Z,18.73
2022-11-22T06:01:24.036Z,18.72
2022-11-22T06:03:57.038Z,18.72
2022-11-22T06:06:29.960Z,18.72
2022-11-22T06:09:03.050Z,18.72
2022-11-22T06:11:35.995Z,18.71
2022-11-22T06:14:09.004Z,18.71
2022-11-22T06:16:42.029Z,18.71
2022-11-22T06:19:15.012Z,18.70
2022-11-22T06:21:48.105Z,18.70
2022-11-22T06:24:21.225Z,18.70
2022-11-22T06:26:55.160Z,18.70
2022-11-22T06:29:28.343Z,18.70
2022-11-22T06:32:03.828Z,18.69
2022-11-22T06:34:34.042Z,18.69
2022-11-22T06:37:06.764Z,18.69
2022-11-22T06:39:39.994Z,18.69
2022-11-22T06:42:13.165Z,18.69
2022-11-22T06:44:46.101Z,18.69
2022-11-22T06:47:32.976Z,18.69
2022-11-22T06:50:06.138Z,18.70
2022-11-22T06:52:39.018Z,18.69
2022-11-22T06:55:42.342Z,18.69
2022-11-22T06:57:45.064Z,18.69
2022-11-22T07:00:18.148Z,18.69
2022-11-22T07:02:51.116Z,18.68
2022-11-22T07:05:25.995Z,18.68
2022-11-22T07:08:04.523Z,18.67
2022-11-22T07:10:30.201Z,18.67
2022-11-22T07:13:03.107Z,18.66
2022-11-22T07:15:36.090Z,18.66
2022-11-22T07:18:12.059Z,18.65
2022-11-22T07:20:46.198Z,18.65
2022-11-22T07:23:19.170Z,18.64
2022-11-22T07:25:52.072Z,18.64
2022-11-22T07:28:25.058Z,18.64
2022-11-22T07:30:58.144Z,18.64
2022-11-22T07:33:34.428Z,18.64
2022-11-22T07:36:08.212Z,18.65
2022-11-22T07:38:42.213Z,18.65
2022-11-22T07:41:15.103Z,18.66
2022-11-22T07:43:48.215Z,18.67
2022-11-22T07:46:21.170Z,18.67
2022-11-22T07:48:54.102Z,18.68
2022-11-22T07:51:27.213Z,18.69
2022-11-22T07:54:00.141Z,18.70
2022-11-22T07:56:33.207Z,18.71
2022-11-22T07:59:06.358Z,18.72
2022-11-22T08:01:39.180Z,18.73
2022-11-22T08:04:12.104Z,18.73
2022-11-22T08:06:45.176Z,18.74
2022-11-22T08:09:18.166Z,18.74
2022-11-22T08:11:51.138Z,18.74
2022-11-22T08:14:24.343Z,18.75
2022-11-22T08:16:57.190Z,18.76
2022-11-22T08:19:30.576Z,18.76
2022-11-22T08:22:03.292Z,18.77
2022-11-22T08:24:36.297Z,18.78
2022-11-22T08:27:09.308Z,18.78
2022-11-22T08:29:42.379Z,18.79
2022-11-22T08:32:15.312Z,18.80
2022-11-22T08:34:48.264Z,18.81
2022-11-22T08:37:21.178Z,18.82
2022-11-22T08:39:54.305Z,18.82
2022-11-22T08:42:27.283Z,18.83
2022-11-22T08:45:00.341Z,18.84
2022-11-22T08:47:33.304Z,18.84
2022-11-22T08:50:20.235Z,18.85
2022-11-22T08:52:53.280Z,18.86
2022-11-22T08:55:26.311Z,18.87
2022-11-22T08:57:59.243Z,18.88
2022-11-22T09:00:33.665Z,18.89
2022-11-22T09:03:05.227Z,18.90
2022-11-22T09:10:47.240Z,18.92
2022-11-22T09:13:20.263Z,18.93
2022-11-22T09:15:53.369Z,18.94
2022-11-22T09:18:26.299Z,18.94
2022-11-22T09:20:59.261Z,18.95
2022-11-22T09:23:32.316Z,18.95
2022-11-22T09:26:05.293Z,18.96
2022-11-22T09:28:38.348Z,18.96
2022-11-22T09:31:11.347Z,18.97
2022-11-22T09:33:44.369Z,18.98
2022-11-22T09:36:17.340Z,18.98
2022-11-22T09:38:50.370Z,18.99
2022-11-22T09:41:23.272Z,18.99
2022-11-22T09:43:56.322Z,19.00
2022-11-22T09:46:29.452Z,19.01
2022-11-22T09:49:02.373Z,19.01
2022-11-22T09:51:35.348Z,19.02
2022-11-22T09:54:08.387Z,19.02
2022-11-22T09:56:41.429Z,19.03
2022-11-22T09:59:14.326Z,19.03
2022-11-22T10:01:47.585Z,19.03
2022-11-22T10:04:20.420Z,19.04
2022-11-22T10:06:53.396Z,19.04
2022-11-22T10:09:26.415Z,19.04
2022-11-22T10:11:59.329Z,19.05
2022-11-22T10:14:32.356Z,19.05
2022-11-22T10:17:05.368Z,19.05
2022-11-22T10:19:38.415Z,19.06
2022-11-22T10:22:11.333Z,19.06
2022-11-22T10:24:44.414Z,19.06
2022-11-22T10:27:17.523Z,19.07
2022-11-22T10:29:50.342Z,19.07
2022-11-22T10:32:23.567Z,19.07
2022-11-22T10:34:56.439Z,19.08
2022-11-22T10:37:29.358Z,19.08
2022-11-22T10:40:02.447Z,19.09
2022-11-22T10:42:35.498Z,19.09
2022-11-22T10:45:08.416Z,19.09
2022-11-22T10:47:41.673Z,19.09
2022-11-22T10:50:14.463Z,19.10
2022-11-22T10:52:47.427Z,19.10
2022-11-22T10:55:20.435Z,19.10
2022-11-22T10:57:53.460Z,19.11
2022-11-22T11:00:26.448Z,19.11
2022-11-22T11:02:59.643Z,19.11
2022-11-22T11:05:32.445Z,19.11
2022-11-22T11:08:36.652Z,19.12
2022-11-22T11:10:38.348Z,19.12
2022-11-22T11:13:11.493Z,19.12
2022-11-22T11:15:44.550Z,19.12
2022-11-22T11:18:20.484Z,19.13
2022-11-22T11:20:53.421Z,19.13
2022-11-22T11:23:26.462Z,19.13
2022-11-22T11:25:59.433Z,19.13
2022-11-22T11:28:32.563Z,19.14
2022-11-22T11:31:05.469Z,19.14
2022-11-22T11:33:38.711Z,19.14
2022-11-22T11:36:11.496Z,19.14
2022-11-22T11:38:44.531Z,19.15
2022-11-22T11:41:17.574Z,19.15
2022-11-22T11:43:50.499Z,19.15
2022-11-22T11:46:23.490Z,19.15
2022-11-22T11:48:59.560Z,19.15
2022-11-22T11:51:32.575Z,19.16
2022-11-22T11:54:05.538Z,19.16
2022-11-22T11:56:38.507Z,19.17
2022-11-22T11:59:11.654Z,19.17
2022-11-22T12:01:44.488Z,19.18
2022-11-22T12:04:17.663Z,19.18
2022-11-22T12:06:50.559Z,19.19
2022-11-22T12:09:23.614Z,19.19
2022-11-22T12:11:56.564Z,19.20
2022-11-22T12:14:48.815Z,19.20
2022-11-22T12:17:02.521Z,19.21
2022-11-22T12:19:35.665Z,19.21
2022-11-22T12:22:08.644Z,19.21
2022-11-22T12:25:09.359Z,19.22
2022-11-22T12:27:14.536Z,19.22
2022-11-22T12:29:47.539Z,19.22
2022-11-22T12:32:20.599Z,19.23
2022-11-22T12:34:53.736Z,19.23
2022-11-22T12:37:26.662Z,19.23
2022-11-22T12:39:59.585Z,19.23
2022-11-22T12:42:32.628Z,19.23
2022-11-22T12:45:05.660Z,19.23
2022-11-22T12:47:38.591Z,19.23
2022-11-22T12:50:11.759Z,19.23
2022-11-22T12:52:58.563Z,19.24
2022-11-22T12:55:31.690Z,19.24
2022-11-22T12:58:04.705Z,19.24
2022-11-22T13:00:37.470Z,19.24
2022-11-22T13:03:10.625Z,19.24
2022-11-22T13:05:43.841Z,19.24
2022-11-22T13:08:16.612Z,19.24
2022-11-22T13:10:49.634Z,19.25
2022-11-22T13:13:22.682Z,19.25
2022-11-22T13:15:55.701Z,19.25
2022-11-22T13:18:28.623Z,19.25
2022-11-22T13:21:01.731Z,19.26
2022-11-22T13:23:34.695Z,19.26
2022-11-22T13:26:14.870Z,19.26
2022-11-22T13:28:43.670Z,19.26
2022-11-22T13:31:30.596Z,19.26
2022-11-22T13:34:03.669Z,19.26
2022-11-22T13:36:36.771Z,19.26
2022-11-22T13:39:09.760Z,19.26
2022-11-22T13:41:42.735Z,19.26
2022-11-22T13:44:15.761Z,19.25
2022-11-22T13:46:48.744Z,19.25
2022-11-22T13:49:21.741Z,19.25
2022-11-22T13:51:54.810Z,19.25
2022-11-22T13:54:28.201Z,19.24
2022-11-22T13:57:00.723Z,19.24
2022-11-22T13:59:33.761Z,19.24
2022-11-22T14:02:20.685Z,19.24
2022-11-22T14:04:53.469Z,19.23
2022-11-22T14:07:26.941Z,19.23
2022-11-22T14:09:59.655Z,19.23
2022-11-22T14:12:32.785Z,19.23
2022-11-22T14:15:05.737Z,19.22
2022-11-22T14:17:42.035Z,19.22
2022-11-22T14:20:11.836Z,19.22
2022-11-22T14:22:44.833Z,19.22
2022-11-22T14:25:17.780Z,19.22
2022-11-22T14:27:50.787Z,19.22
2022-11-22T14:30:23.725Z,19.22
2022-11-22T14:32:56.722Z,19.22
2022-11-22T14:35:30.336Z,19.22
2022-11-22T14:38:02.847Z,19.23
2022-11-22T14:40:35.617Z,19.23
2022-11-22T14:43:08.803Z,19.23
2022-11-22T14:45:41.844Z,19.23
2022-11-22T14:48:14.864Z,19.23
2022-11-22T14:50:47.775Z,19.23
2022-11-22T14:53:21.015Z,19.23
2022-11-22T14:55:53.749Z,19.23
2022-11-22T14:58:26.833Z,19.23
2022-11-22T15:01:02.438Z,19.23
2022-11-22T15:03:35.508Z,19.23
2022-11-22T15:09:12.522Z,19.23
2022-11-22T15:09:15.365Z,19.23
2022-11-22T15:11:14.787Z,19.23
2022-11-22T15:13:47.627Z,19.23
2022-11-22T15:57:26.042Z,19.27
2022-11-22T15:59:55.903Z,19.27
2022-11-22T16:02:28.597Z,19.27
2022-11-22T16:06:07.071Z,19.28
2022-11-22T16:07:34.732Z,19.28
2022-11-22T16:10:07.876Z,19.28
2022-11-22T16:12:40.650Z,19.28
2022-11-22T16:15:14.940Z,19.29
2022-11-22T16:17:47.602Z,19.29
2022-11-22T16:20:20.637Z,19.29
2022-11-22T16:22:53.712Z,19.29
2022-11-22T16:25:27.157Z,19.29
2022-11-22T16:27:59.623Z,19.29
2022-11-22T16:30:32.754Z,19.29
2022-11-22T16:33:19.635Z,19.29
2022-11-22T16:35:52.794Z,19.29
2022-11-22T16:38:25.805Z,19.28
2022-11-22T16:40:59.042Z,19.28
2022-11-22T16:43:31.808Z,19.28
2022-11-22T16:46:04.858Z,19.28
2022-11-22T16:48:37.751Z,19.27
2022-11-22T16:51:10.945Z,19.27
2022-11-22T16:53:43.750Z,19.26
2022-11-22T16:56:16.810Z,19.25
2022-11-22T16:58:49.662Z,19.25
2022-11-22T17:01:22.939Z,19.23
2022-11-22T17:03:56.041Z,19.22
2022-11-22T17:06:28.826Z,19.21
2022-11-22T17:09:01.953Z,19.19
2022-11-22T17:11:34.991Z,19.19
2022-11-22T17:14:08.047Z,19.18
2022-11-22T17:16:40.754Z,19.18
2022-11-22T17:19:37.403Z,19.18
2022-11-22T17:21:47.100Z,19.18
2022-11-22T17:24:20.059Z,19.18
2022-11-22T17:26:52.943Z,19.18
2022-11-22T17:29:49.462Z,19.18
2022-11-22T17:31:58.798Z,19.18
2022-11-22T17:34:32.382Z,19.18
2022-11-22T17:37:04.741Z,19.18
2022-11-22T17:39:37.905Z,19.18
2022-11-22T17:42:11.144Z,19.18
2022-11-22T17:44:43.892Z,19.19
2022-11-22T17:47:16.765Z,19.19
2022-11-22T17:49:49.740Z,19.20
2022-11-22T17:52:22.980Z,19.20
2022-11-22T17:54:58.293Z,19.20
2022-11-22T17:57:28.863Z,19.20
2022-11-22T18:00:01.781Z,19.21
2022-11-22T18:02:35.031Z,19.21
2022-11-22T18:05:07.955Z,19.21
2022-11-22T18:07:40.963Z,19.21
2022-11-22T18:10:14.081Z,19.21
2022-11-22T18:13:13.596Z,19.21
2022-11-22T18:15:19.779Z,19.21
2022-11-22T18:17:52.878Z,19.21
2022-11-22T18:20:26.198Z,19.21
2022-11-22T18:22:59.090Z,19.22
2022-11-22T18:25:32.069Z,19.22
2022-11-22T18:28:05.233Z,19.22
2022-11-22T18:30:37.873Z,19.22
2022-11-22T18:33:10.826Z,19.22
2022-11-22T18:35:55.928Z,19.23
2022-11-22T18:38:16.956Z,19.23
2022-11-22T18:40:49.869Z,19.23
2022-11-22T18:43:23.151Z,19.23
2022-11-22T18:45:56.121Z,19.23
2022-11-22T18:48:32.066Z,19.23
2022-11-22T18:51:04.838Z,19.23
2022-11-22T18:53:38.039Z,19.23
2022-11-22T18:56:10.882Z,19.24
2022-11-22T18:58:44.017Z,19.24
2022-11-22T19:01:16.964Z,19.24
2022-11-22T19:03:50.167Z,19.24
2022-11-22T19:06:23.155Z,19.25
2022-11-22T19:08:56.139Z,19.25
2022-11-22T19:11:29.184Z,19.25
2022-11-22T19:14:02.394Z,19.25
2022-11-22T19:16:35.220Z,19.26
2022-11-22T19:19:08.042Z,19.26
2022-11-22T19:21:43.965Z,19.26
2022-11-22T19:24:17.070Z,19.26
2022-11-22T19:26:50.199Z,19.26
2022-11-22T19:29:23.242Z,19.26
2022-11-22T19:31:58.020Z,19.26
2022-11-22T19:34:31.227Z,19.26
2022-11-22T19:37:03.965Z,19.26
2022-11-22T19:39:37.087Z,19.26
2022-11-22T19:42:09.912Z,19.26
2022-11-22T19:44:43.062Z,19.26
2022-11-22T19:47:15.928Z,19.27
2022-11-22T19:49:48.986Z,19.27
2022-11-22T19:52:22.015Z,19.27
2022-11-22T19:54:54.975Z,19.27
2022-11-22T19:57:28.261Z,19.27
2022-11-22T20:00:01.103Z,19.27
2022-11-22T20:02:34.156Z,19.27
2022-11-22T20:05:07.142Z,19.27
2022-11-22T20:07:40.168Z,19.28
2022-11-22T20:10:13.151Z,19.28
2022-11-22T20:12:46.116Z,19.28
2022-11-22T20:15:19.284Z,19.28
2022-11-22T20:17:52.312Z,19.28
2022-11-22T20:20:25.084Z,19.28
2022-11-22T20:22:58.505Z,19.29
2022-11-22T20:25:31.980Z,19.29
2022-11-22T20:28:05.352Z,19.29
2022-11-22T20:30:38.254Z,19.29
2022-11-22T20:33:11.001Z,19.29
2022-11-22T20:35:44.073Z,19.30
2022-11-22T20:38:17.156Z,19.30
2022-11-22T20:40:50.036Z,19.30
2022-11-22T20:43:23.371Z,19.30
2022-11-22T20:45:56.131Z,19.29
2022-11-22T20:48:29.056Z,19.29
2022-11-22T20:51:02.055Z,19.28
2022-11-22T20:53:35.190Z,19.28
2022-11-22T20:56:08.329Z,19.28
2022-11-22T20:58:41.418Z,19.27
2022-11-22T21:01:14.265Z,19.27
2022-11-22T21:03:47.366Z,19.27
2022-11-22T21:06:20.103Z,19.27
2022-11-22T21:08:53.349Z,19.27
2022-11-22T21:11:26.410Z,19.27
2022-11-22T21:13:59.375Z,19.27
2022-11-22T21:16:32.475Z,19.28
2022-11-22T21:19:05.423Z,19.28
2022-11-22T21:21:52.304Z,19.28
2022-11-22T21:24:25.223Z,19.28
2022-11-22T21:26:58.196Z,19.28
2022-11-22T21:29:31.481Z,19.28
2022-11-22T21:32:04.290Z,19.29
2022-11-22T21:34:37.442Z,19.29
2022-11-22T21:37:10.091Z,19.28
2022-11-22T21:39:43.450Z,19.27
2022-11-22T21:42:16.355Z,19.27
2022-11-22T21:44:49.455Z,19.27
2022-11-22T21:47:22.535Z,19.26
2022-11-22T21:49:55.497Z,19.26
2022-11-22T21:52:28.499Z,19.26
2022-11-22T21:55:01.363Z,19.26
2022-11-22T21:57:34.473Z,19.26
2022-11-22T22:00:07.531Z,19.26
2022-11-22T22:02:40.752Z,19.25
2022-11-22T22:05:13.413Z,19.25
2022-11-22T22:07:52.540Z,19.24
2022-11-22T22:10:19.528Z,19.24
2022-11-22T22:12:54.423Z,19.23
2022-11-22T22:15:27.533Z,19.22
2022-11-22T22:18:00.570Z,19.22
2022-11-22T22:20:33.575Z,19.21
2022-11-22T22:23:06.493Z,19.20
2022-11-22T22:25:39.462Z,19.20
2022-11-22T22:28:12.457Z,19.19
2022-11-22T22:30:45.559Z,19.18
2022-11-22T22:33:18.678Z,19.17
2022-11-22T22:35:51.603Z,19.16
2022-11-22T22:38:24.528Z,19.15
2022-11-22T22:40:57.571Z,19.14
2022-11-22T22:43:30.576Z,19.13
2022-11-22T22:46:06.499Z,19.13
2022-11-22T22:48:36.694Z,19.12
2022-11-22T22:51:09.431Z,19.11
2022-11-22T22:53:42.581Z,19.11
2022-11-22T22:56:15.505Z,19.10
2022-11-22T22:58:48.594Z,19.09
2022-11-22T23:01:21.625Z,19.09
2022-11-22T23:03:54.719Z,19.08
2022-11-22T23:06:27.627Z,19.08
2022-11-22T23:09:00.530Z,19.07
2022-11-22T23:11:33.580Z,19.06
2022-11-22T23:14:06.639Z,19.05
2022-11-22T23:16:39.539Z,19.05
2022-11-22T23:19:12.768Z,19.04
2022-11-22T23:21:45.576Z,19.04
2022-11-22T23:24:18.530Z,19.03
2022-11-22T23:26:51.623Z,19.03
2022-11-22T23:29:24.587Z,19.02
2022-11-22T23:31:57.651Z,19.02
2022-11-22T23:34:30.702Z,19.01
2022-11-22T23:37:03.345Z,19.00
2022-11-22T23:39:36.636Z,19.00
2022-11-22T23:42:09.647Z,18.99
2022-11-22T23:44:42.619Z,18.98
2022-11-22T23:47:15.592Z,18.97
2022-11-22T23:49:48.718Z,18.96
2022-11-22T23:52:21.635Z,18.96
2022-11-22T23:54:54.457Z,18.95
2022-11-22T23:57:27.632Z,18.95
